createdAt,value
2023-02-15T00:01:08.464Z,13.83
2023-02-15T00:03:35.334Z,12.10
2023-02-15T00:06:02.397Z,13.70
2023-02-15T00:08:29.268Z,11.97
2023-02-15T00:11:07.639Z,13.60
2023-02-15T00:13:36.387Z,13.30
2023-02-15T00:16:04.500Z,11.30
2023-02-15T00:18:31.557Z,12.70
2023-02-15T00:20:58.364Z,12.80
2023-02-15T00:23:25.197Z,13.20
2023-02-15T00:25:51.880Z,12.67
2023-02-15T00:28:18.671Z,11.40
2023-02-15T00:30:45.358Z,13.77
2023-02-15T00:33:12.034Z,13.20
2023-02-15T00:35:38.812Z,11.30
2023-02-15T00:38:05.571Z,12.43
2023-02-15T00:40:32.226Z,12.80
2023-02-15T00:42:59.625Z,10.43
2023-02-15T00:45:26.395Z,11.27
2023-02-15T00:47:53.106Z,11.23
2023-02-15T00:50:20.519Z,10.90
2023-02-15T00:52:48.473Z,11.90
2023-02-15T00:55:15.181Z,10.90
2023-02-15T00:57:41.878Z,11.50
2023-02-15T01:00:09.007Z,12.73
2023-02-15T01:02:35.657Z,11.17
2023-02-15T01:05:02.357Z,12.50
2023-02-15T01:07:29.021Z,11.43
2023-02-15T01:09:55.684Z,11.20
2023-02-15T01:12:22.379Z,11.50
2023-02-15T01:14:49.052Z,13.53
2023-02-15T01:17:15.718Z,12.30
2023-02-15T01:19:42.383Z,12.03
2023-02-15T01:22:09.037Z,11.83
2023-02-15T01:24:35.714Z,11.20
2023-02-15T01:27:02.340Z,11.73
2023-02-15T01:29:29.356Z,12.20
2023-02-15T01:31:56.119Z,12.33
2023-02-15T01:34:22.920Z,11.60
2023-02-15T01:36:49.629Z,11.50
2023-02-15T01:39:16.294Z,11.40
2023-02-15T01:41:42.995Z,10.30
2023-02-15T01:44:48.485Z,11.87
2023-02-15T01:47:29.978Z,10.90
2023-02-15T01:50:07.648Z,11.60
2023-02-15T01:52:35.635Z,11.03
2023-02-15T01:55:03.313Z,10.97
2023-02-15T01:57:30.218Z,11.97
2023-02-15T01:59:58.754Z,10.80
2023-02-15T02:02:26.066Z,10.77
2023-02-15T02:04:55.959Z,10.77
2023-02-15T02:07:29.047Z,11.13
2023-02-15T02:09:55.707Z,10.80
2023-02-15T02:12:22.485Z,11.00
2023-02-15T02:14:49.473Z,9.73
2023-02-15T02:17:56.782Z,16.00
2023-02-15T02:20:44.621Z,10.43
2023-02-15T02:23:23.403Z,12.00
2023-02-15T02:25:56.068Z,10.70
2023-02-15T02:28:53.039Z,11.87
2023-02-15T02:31:31.525Z,12.20
2023-02-15T02:34:21.349Z,10.63
2023-02-15T02:36:47.974Z,11.50
2023-02-15T02:39:23.187Z,11.40
2023-02-15T02:42:08.692Z,12.33
2023-02-15T02:44:38.386Z,10.43
2023-02-15T02:47:42.014Z,12.07
2023-02-15T02:50:11.095Z,10.63
2023-02-15T02:52:45.596Z,11.23
2023-02-15T02:55:35.902Z,11.73
2023-02-15T02:58:19.023Z,12.63
2023-02-15T03:00:58.728Z,10.33
2023-02-15T03:03:26.674Z,10.90
2023-02-15T03:05:55.571Z,11.40
2023-02-15T03:08:25.457Z,9.97
2023-02-15T03:14:34.037Z,11.13
2023-02-15T03:17:00.669Z,11.20
2023-02-15T03:19:29.311Z,11.40
2023-02-15T03:22:10.253Z,11.00
2023-02-15T03:24:39.425Z,11.80
2023-02-15T03:27:13.390Z,11.13
2023-02-15T03:29:40.040Z,11.70
2023-02-15T03:32:08.399Z,10.40
2023-02-15T03:34:35.071Z,11.50
2023-02-15T03:37:16.149Z,11.20
2023-02-15T03:39:50.464Z,11.07
2023-02-15T03:42:26.957Z,12.17
2023-02-15T03:45:06.870Z,12.80
2023-02-15T03:47:38.397Z,13.67
2023-02-15T03:50:44.349Z,10.90
2023-02-15T03:53:12.253Z,9.23
2023-02-15T03:55:38.985Z,11.10
2023-02-15T03:58:24.300Z,11.00
2023-02-15T04:01:15.148Z,11.70
2023-02-15T04:03:44.151Z,10.10
2023-02-15T04:06:10.781Z,10.87
2023-02-15T04:08:56.262Z,11.00
2023-02-15T04:11:22.902Z,10.87
2023-02-15T04:13:57.239Z,12.10
2023-02-15T04:16:24.898Z,11.93
2023-02-15T04:19:10.246Z,9.83
2023-02-15T04:21:55.613Z,10.40
2023-02-15T04:24:41.086Z,11.83
2023-02-15T04:27:07.786Z,10.70
2023-02-15T04:29:34.421Z,11.70
2023-02-15T04:32:01.733Z,13.57
2023-02-15T04:34:28.392Z,10.77
2023-02-15T04:36:55.075Z,11.20
2023-02-15T04:39:21.687Z,12.20
2023-02-15T04:41:48.851Z,10.90
2023-02-15T04:44:15.731Z,11.03
2023-02-15T04:46:42.360Z,14.77
2023-02-15T04:49:09.476Z,12.40
2023-02-15T04:51:36.253Z,10.57
2023-02-15T04:54:02.997Z,11.90
2023-02-15T04:56:31.013Z,11.77
2023-02-15T04:58:57.835Z,11.40
2023-02-15T05:01:24.471Z,12.10
2023-02-15T05:03:51.184Z,12.57
2023-02-15T05:06:17.893Z,11.47
2023-02-15T05:08:44.542Z,12.07
2023-02-15T05:11:11.481Z,12.17
2023-02-15T05:13:38.113Z,11.93
2023-02-15T05:16:04.987Z,12.40
2023-02-15T05:18:31.622Z,11.47
2023-02-15T05:20:58.394Z,12.00
2023-02-15T05:23:25.008Z,10.80
2023-02-15T05:26:10.061Z,11.40
2023-02-15T05:28:36.972Z,13.73
2023-02-15T05:31:12.447Z,12.27
2023-02-15T05:33:39.368Z,12.50
2023-02-15T05:36:06.789Z,13.17
2023-02-15T05:38:33.710Z,12.90
2023-02-15T05:41:00.442Z,13.37
2023-02-15T05:43:27.079Z,12.97
2023-02-15T05:45:54.449Z,12.90
2023-02-15T05:48:21.974Z,12.63
2023-02-15T05:50:58.282Z,13.60
2023-02-15T05:53:24.985Z,11.30
2023-02-15T05:55:51.617Z,11.90
2023-02-15T05:58:18.248Z,11.87
2023-02-15T06:00:44.903Z,11.57
2023-02-15T06:03:11.566Z,12.13
2023-02-15T06:05:38.239Z,12.53
2023-02-15T06:08:06.078Z,11.63
2023-02-15T06:10:32.797Z,13.10
2023-02-15T06:12:59.460Z,12.33
2023-02-15T06:15:26.117Z,11.40
2023-02-15T06:17:53.001Z,13.23
2023-02-15T06:20:19.706Z,10.70
2023-02-15T06:22:46.367Z,12.47
2023-02-15T06:25:13.006Z,12.40
2023-02-15T06:27:41.796Z,11.77
2023-02-15T06:30:09.490Z,12.07
2023-02-15T06:32:36.154Z,13.57
2023-02-15T06:35:02.870Z,11.93
2023-02-15T06:37:29.490Z,11.87
2023-02-15T06:39:56.141Z,11.67
2023-02-15T06:42:23.282Z,11.80
2023-02-15T06:44:49.882Z,12.90
2023-02-15T06:47:16.588Z,12.87
2023-02-15T06:49:43.216Z,13.93
2023-02-15T06:52:09.850Z,13.43
2023-02-15T06:54:36.490Z,13.07
2023-02-15T06:57:03.196Z,13.30
2023-02-15T06:59:29.915Z,13.50
2023-02-15T07:01:56.593Z,11.93
2023-02-15T07:04:23.387Z,13.27
2023-02-15T07:06:51.590Z,10.63
2023-02-15T07:09:19.411Z,14.23
2023-02-15T07:12:04.762Z,11.60
2023-02-15T07:14:31.456Z,12.60
2023-02-15T07:16:58.085Z,14.50
2023-02-15T07:19:24.736Z,14.33
2023-02-15T07:21:51.368Z,15.07
2023-02-15T07:24:18.050Z,15.00
2023-02-15T07:26:44.707Z,18.17
2023-02-15T07:29:11.331Z,13.73
2023-02-15T07:31:37.958Z,13.40
2023-02-15T07:34:06.103Z,16.10
2023-02-15T07:36:33.178Z,13.40
2023-02-15T07:38:59.799Z,12.60
2023-02-15T07:41:26.424Z,12.20
2023-02-15T07:43:53.061Z,22.87
2023-02-15T07:46:20.966Z,52.00
2023-02-15T07:48:47.670Z,32.63
2023-02-15T07:51:15.356Z,15.90
2023-02-15T07:53:42.065Z,13.03
2023-02-15T07:56:11.436Z,13.83
2023-02-15T07:58:53.260Z,14.30
2023-02-15T08:01:21.724Z,13.17
2023-02-15T08:03:48.651Z,13.97
2023-02-15T08:06:15.362Z,13.80
2023-02-15T08:08:42.178Z,13.30
2023-02-15T08:11:37.032Z,18.20
2023-02-15T08:14:04.935Z,14.80
2023-02-15T08:16:34.482Z,14.40
2023-02-15T08:19:03.931Z,14.90
2023-02-15T08:21:30.698Z,13.90
2023-02-15T08:23:57.624Z,15.50
2023-02-15T08:26:24.776Z,14.43
2023-02-15T08:28:52.239Z,24.20
2023-02-15T08:31:19.098Z,20.63
2023-02-15T08:33:46.778Z,18.83
2023-02-15T08:36:16.033Z,15.80
2023-02-15T08:38:42.714Z,16.50
2023-02-15T08:41:23.139Z,16.23
2023-02-15T08:43:54.677Z,18.30
2023-02-15T08:46:22.028Z,21.73
2023-02-15T08:48:48.644Z,16.20
2023-02-15T08:51:16.755Z,16.60
2023-02-15T08:53:50.023Z,18.43
2023-02-15T08:56:17.249Z,24.60
2023-02-15T08:58:43.977Z,18.00
2023-02-15T09:01:19.109Z,15.10
2023-02-15T09:03:46.973Z,25.90
2023-02-15T09:06:13.628Z,14.63
2023-02-15T09:08:40.404Z,18.57
2023-02-15T09:11:28.302Z,14.47
2023-02-15T09:14:10.022Z,14.63
2023-02-15T09:16:37.741Z,14.40
2023-02-15T09:19:07.859Z,16.00
2023-02-15T09:21:36.228Z,16.97
2023-02-15T09:24:05.585Z,17.60
2023-02-15T09:26:33.186Z,16.67
2023-02-15T09:29:01.777Z,16.33
2023-02-15T09:31:30.009Z,15.27
2023-02-15T09:33:56.766Z,15.40
2023-02-15T09:36:27.794Z,14.93
2023-02-15T09:39:09.949Z,16.30
2023-02-15T09:42:14.960Z,14.43
2023-02-15T09:44:47.298Z,13.70
2023-02-15T09:47:23.293Z,14.40
2023-02-15T09:50:27.759Z,15.33
2023-02-15T09:53:22.374Z,14.47
2023-02-15T09:56:11.129Z,15.00
2023-02-15T09:58:44.409Z,14.97
2023-02-15T10:01:20.552Z,14.70
2023-02-15T10:04:10.480Z,15.63
2023-02-15T10:06:50.315Z,14.30
2023-02-15T10:09:39.338Z,14.30
2023-02-15T10:12:08.683Z,15.00
2023-02-15T10:14:58.036Z,14.47
2023-02-15T10:17:52.912Z,15.17
2023-02-15T10:20:42.934Z,18.30
2023-02-15T10:23:25.583Z,14.87
2023-02-15T10:26:15.475Z,13.87
2023-02-15T10:28:53.009Z,14.13
2023-02-15T10:31:34.447Z,16.50
2023-02-15T10:34:07.305Z,14.43
2023-02-15T10:37:11.626Z,14.30
2023-02-15T10:39:48.588Z,13.57
2023-02-15T10:42:43.397Z,14.27
2023-02-15T10:45:13.057Z,14.60
2023-02-15T10:47:58.423Z,14.13
2023-02-15T10:50:31.016Z,14.40
2023-02-15T10:53:35.250Z,14.20
2023-02-15T10:56:24.812Z,14.80
2023-02-15T10:59:08.070Z,15.37
2023-02-15T11:01:43.096Z,14.23
2023-02-15T11:04:37.848Z,15.60
2023-02-15T11:07:07.359Z,15.97
2023-02-15T11:09:42.026Z,14.10
2023-02-15T11:12:11.637Z,15.20
2023-02-15T11:14:55.119Z,14.67
2023-02-15T11:17:35.618Z,14.80
2023-02-15T11:20:17.664Z,17.30
2023-02-15T11:22:45.162Z,16.37
2023-02-15T11:25:20.278Z,16.37
2023-02-15T11:27:48.041Z,17.27
2023-02-15T11:30:15.722Z,15.50
2023-02-15T11:32:46.983Z,15.43
2023-02-15T11:35:25.681Z,15.23
2023-02-15T11:37:56.389Z,15.83
2023-02-15T11:40:31.420Z,16.13
2023-02-15T11:42:59.993Z,16.30
2023-02-15T11:45:31.054Z,16.80
2023-02-15T11:47:58.411Z,17.10
2023-02-15T11:50:27.584Z,15.33
2023-02-15T11:53:02.619Z,15.00
2023-02-15T11:55:32.036Z,14.87
2023-02-15T11:58:04.080Z,16.10
2023-02-15T12:00:39.235Z,16.23
2023-02-15T12:03:35.277Z,15.60
2023-02-15T12:06:03.510Z,16.03
2023-02-15T12:08:39.738Z,17.03
2023-02-15T12:11:16.279Z,15.77
2023-02-15T12:13:57.334Z,18.00
2023-02-15T12:16:24.095Z,16.40
2023-02-15T12:18:50.755Z,16.77
2023-02-15T12:21:29.469Z,17.33
2023-02-15T12:23:58.890Z,15.80
2023-02-15T12:26:33.675Z,16.33
2023-02-15T12:29:03.084Z,16.57
2023-02-15T12:31:33.611Z,16.97
2023-02-15T12:34:02.835Z,17.47
2023-02-15T12:36:34.054Z,15.60
2023-02-15T12:39:17.240Z,16.53
2023-02-15T12:41:57.531Z,16.47
2023-02-15T12:44:29.945Z,16.43
2023-02-15T12:47:15.647Z,16.53
2023-02-15T12:49:47.694Z,16.93
2023-02-15T12:52:21.070Z,17.07
2023-02-15T12:54:47.990Z,16.53
2023-02-15T12:57:34.430Z,17.33
2023-02-15T13:00:06.754Z,16.90
2023-02-15T13:02:48.960Z,66.00
2023-02-15T13:05:21.938Z,19.80
2023-02-15T13:07:56.944Z,17.00
2023-02-15T13:10:28.526Z,16.43
2023-02-15T13:12:55.720Z,16.83
2023-02-15T13:15:41.999Z,17.00
2023-02-15T13:18:32.597Z,17.30
2023-02-15T13:21:05.200Z,16.63
2023-02-15T13:23:36.260Z,17.07
2023-02-15T13:26:05.300Z,17.40
2023-02-15T13:28:47.337Z,17.77
2023-02-15T13:31:16.167Z,17.13
2023-02-15T13:33:46.437Z,17.77
2023-02-15T13:36:22.157Z,17.53
2023-02-15T13:39:09.250Z,17.10
2023-02-15T13:42:02.124Z,19.50
2023-02-15T13:44:55.794Z,23.80
2023-02-15T13:47:38.443Z,18.30
2023-02-15T13:50:30.199Z,17.50
2023-02-15T13:52:56.775Z,18.40
2023-02-15T13:56:00.700Z,18.03
2023-02-15T13:58:57.395Z,19.37
2023-02-15T14:01:41.164Z,18.67
2023-02-15T14:04:23.350Z,18.47
2023-02-15T14:07:17.588Z,19.37
2023-02-15T14:10:08.754Z,18.13
2023-02-15T14:12:35.641Z,18.10
2023-02-15T14:15:33.581Z,17.87
2023-02-15T14:18:22.196Z,18.00
2023-02-15T14:21:18.953Z,18.93
2023-02-15T14:24:03.830Z,19.30
2023-02-15T14:26:35.220Z,18.90
2023-02-15T14:29:40.572Z,18.80
2023-02-15T14:32:11.801Z,18.00
2023-02-15T14:34:51.506Z,18.80
2023-02-15T14:37:23.070Z,20.40
2023-02-15T14:40:17.358Z,19.23
2023-02-15T14:42:57.817Z,19.70
2023-02-15T14:45:51.307Z,20.23
2023-02-15T14:48:34.485Z,20.10
2023-02-15T14:51:01.494Z,19.43
2023-02-15T14:53:31.941Z,19.40
2023-02-15T14:56:10.890Z,19.17
2023-02-15T14:58:58.855Z,18.40
2023-02-15T15:01:35.881Z,19.07
2023-02-15T15:04:09.732Z,20.40
2023-02-15T15:06:41.489Z,20.30
2023-02-15T15:09:21.215Z,20.43
2023-02-15T15:11:51.875Z,20.83
2023-02-15T15:14:33.863Z,19.83
2023-02-15T15:17:01.523Z,20.80
2023-02-15T15:19:53.491Z,24.53
2023-02-15T15:22:24.623Z,22.00
2023-02-15T15:24:58.747Z,20.67
2023-02-15T15:27:46.781Z,20.10
2023-02-15T15:30:19.652Z,20.30
2023-02-15T15:32:58.342Z,30.17
2023-02-15T15:35:56.857Z,22.17
2023-02-15T15:39:11.817Z,20.80
2023-02-15T15:42:07.788Z,20.30
2023-02-15T15:44:53.068Z,21.17
2023-02-15T15:47:25.093Z,23.03
2023-02-15T15:49:51.712Z,26.10
2023-02-15T15:52:19.434Z,23.30
2023-02-15T15:54:48.103Z,25.33
2023-02-15T15:57:31.194Z,22.23
2023-02-15T16:00:00.587Z,23.47
2023-02-15T16:02:27.458Z,57.57
2023-02-15T16:04:54.306Z,31.13
2023-02-15T16:07:20.877Z,23.43
2023-02-15T16:10:06.643Z,23.60
2023-02-15T16:12:36.986Z,21.40
2023-02-15T16:15:16.749Z,26.33
2023-02-15T16:17:44.877Z,25.10
2023-02-15T16:20:50.551Z,24.30
2023-02-15T16:23:39.192Z,21.23
2023-02-15T16:26:41.060Z,23.07
2023-02-15T16:29:17.826Z,23.00
2023-02-15T16:31:45.076Z,23.20
2023-02-15T16:34:18.211Z,22.13
2023-02-15T16:36:44.812Z,23.40
2023-02-15T16:39:18.827Z,23.60
2023-02-15T16:41:47.110Z,25.03
2023-02-15T16:44:20.864Z,22.30
2023-02-15T16:46:51.912Z,21.77
2023-02-15T16:49:23.016Z,22.03
2023-02-15T16:52:01.838Z,21.07
2023-02-15T16:54:29.674Z,20.60
2023-02-15T16:56:56.386Z,23.60
2023-02-15T16:59:32.301Z,25.30
2023-02-15T17:01:58.928Z,21.80
2023-02-15T17:04:29.273Z,21.07
2023-02-15T17:06:58.913Z,20.03
2023-02-15T17:09:26.435Z,21.40
2023-02-15T17:11:53.087Z,21.07
2023-02-15T17:14:21.963Z,22.27
2023-02-15T17:16:55.518Z,20.60
2023-02-15T17:19:24.152Z,20.97
2023-02-15T17:21:54.558Z,20.27
2023-02-15T17:24:32.942Z,21.53
2023-02-15T17:27:01.744Z,19.77
2023-02-15T17:29:35.541Z,21.40
2023-02-15T17:32:02.918Z,22.00
2023-02-15T17:34:43.716Z,21.83
2023-02-15T17:37:12.933Z,21.03
2023-02-15T17:39:41.328Z,21.17
2023-02-15T17:42:08.011Z,19.20
2023-02-15T17:44:34.793Z,21.33
2023-02-15T17:47:01.420Z,19.80
2023-02-15T17:49:34.722Z,21.10
2023-02-15T17:52:02.588Z,27.20
2023-02-15T17:54:47.723Z,24.30
2023-02-15T17:57:14.941Z,20.93
2023-02-15T18:00:00.865Z,20.80
2023-02-15T18:02:46.925Z,22.00
2023-02-15T18:05:32.984Z,21.27
2023-02-15T18:08:18.288Z,20.00
2023-02-15T18:11:03.756Z,21.13
2023-02-15T18:13:30.641Z,20.23
2023-02-15T18:15:57.661Z,19.67
2023-02-15T18:18:24.488Z,18.60
2023-02-15T18:20:51.119Z,19.87
2023-02-15T18:23:17.748Z,20.13
2023-02-15T18:25:44.715Z,21.03
2023-02-15T18:28:11.348Z,20.33
2023-02-15T18:30:41.181Z,22.07
2023-02-15T18:33:20.531Z,20.10
2023-02-15T18:35:49.161Z,27.30
2023-02-15T18:38:15.792Z,20.80
2023-02-15T18:40:42.441Z,23.00
2023-02-15T18:43:13.079Z,20.17
2023-02-15T18:45:41.438Z,20.50
2023-02-15T18:48:09.917Z,19.07
2023-02-15T18:50:36.960Z,20.27
2023-02-15T18:53:04.451Z,20.57
2023-02-15T18:55:33.016Z,19.80
2023-02-15T18:57:59.712Z,22.00
2023-02-15T19:00:28.484Z,20.67
2023-02-15T19:02:55.545Z,19.87
2023-02-15T19:05:22.555Z,23.43
2023-02-15T19:07:49.488Z,22.10
2023-02-15T19:10:20.906Z,20.20
2023-02-15T19:12:48.107Z,21.03
2023-02-15T19:15:16.359Z,21.83
2023-02-15T19:17:43.108Z,25.93
2023-02-15T19:20:26.888Z,23.17
2023-02-15T19:22:53.858Z,22.10
2023-02-15T19:25:22.567Z,21.17
2023-02-15T19:27:49.314Z,25.13
2023-02-15T19:30:21.533Z,19.63
2023-02-15T19:32:48.193Z,21.63
2023-02-15T19:35:16.544Z,21.87
2023-02-15T19:37:44.663Z,20.17
2023-02-15T19:40:22.801Z,21.73
2023-02-15T19:42:49.425Z,19.07
2023-02-15T19:45:20.564Z,20.73
2023-02-15T19:47:51.728Z,20.60
2023-02-15T19:50:19.383Z,21.70
2023-02-15T19:52:46.332Z,18.60
2023-02-15T19:55:33.610Z,20.20
2023-02-15T19:58:01.129Z,20.17
2023-02-15T20:00:28.642Z,19.73
2023-02-15T20:02:55.621Z,19.77
2023-02-15T20:05:22.595Z,17.10
2023-02-15T20:07:50.360Z,18.03
2023-02-15T20:10:20.855Z,25.47
2023-02-15T20:12:47.680Z,18.67
2023-02-15T20:15:34.486Z,20.43
2023-02-15T20:18:06.729Z,21.73
2023-02-15T20:20:39.508Z,21.63
2023-02-15T20:23:07.017Z,20.03
2023-02-15T20:25:34.123Z,21.37
2023-02-15T20:28:01.064Z,20.77
2023-02-15T20:30:31.793Z,19.80
2023-02-15T20:32:58.524Z,21.67
2023-02-15T20:35:26.123Z,20.23
2023-02-15T20:37:53.776Z,20.33
2023-02-15T20:40:22.293Z,20.27
2023-02-15T20:42:49.006Z,23.17
2023-02-15T20:45:25.545Z,20.50
2023-02-15T20:47:52.450Z,20.40
2023-02-15T20:50:24.252Z,23.13
2023-02-15T20:52:51.388Z,23.63
2023-02-15T20:55:22.547Z,22.67
2023-02-15T20:57:49.226Z,20.43
2023-02-15T21:00:18.973Z,19.50
2023-02-15T21:02:47.163Z,19.50
2023-02-15T21:05:18.653Z,19.50
2023-02-15T21:07:45.315Z,22.23
2023-02-15T21:10:19.947Z,20.67
2023-02-15T21:12:46.794Z,20.10
2023-02-15T21:15:35.242Z,20.10
2023-02-15T21:18:04.092Z,21.10
2023-02-15T21:20:31.460Z,19.57
2023-02-15T21:22:59.758Z,26.43
2023-02-15T21:25:33.463Z,21.63
2023-02-15T21:28:00.106Z,24.63
2023-02-15T21:30:26.980Z,17.80
2023-02-15T21:32:53.743Z,19.60
2023-02-15T21:35:21.068Z,21.60
2023-02-15T21:37:49.444Z,24.73
2023-02-15T21:40:25.918Z,20.60
2023-02-15T21:43:11.045Z,20.40
2023-02-15T21:45:56.447Z,20.77
2023-02-15T21:48:23.062Z,23.47
2023-02-15T21:51:08.557Z,17.37
2023-02-15T21:53:36.676Z,23.10
2023-02-15T21:56:04.941Z,22.93
2023-02-15T21:58:33.258Z,19.33
2023-02-15T22:01:00.375Z,21.63
2023-02-15T22:03:32.302Z,17.97
2023-02-15T22:05:59.213Z,19.77
2023-02-15T22:08:25.897Z,19.73
2023-02-15T22:10:54.409Z,19.00
2023-02-15T22:13:28.646Z,18.10
2023-02-15T22:15:55.951Z,19.17
2023-02-15T22:18:27.745Z,18.10
2023-02-15T22:20:54.952Z,19.50
2023-02-15T22:23:21.961Z,24.77
2023-02-15T22:25:56.454Z,22.47
2023-02-15T22:28:31.637Z,20.47
2023-02-15T22:30:58.358Z,21.27
2023-02-15T22:33:31.178Z,20.57
2023-02-15T22:35:57.895Z,20.50
2023-02-15T22:38:24.646Z,21.13
2023-02-15T22:40:52.040Z,24.60
2023-02-15T22:43:38.572Z,22.50
2023-02-15T22:46:07.326Z,24.50
2023-02-15T22:48:34.133Z,22.53
2023-02-15T22:51:01.209Z,23.90
2023-02-15T22:53:28.225Z,24.97
2023-02-15T22:55:54.865Z,22.63
2023-02-15T22:58:23.960Z,22.80
2023-02-15T23:00:50.582Z,23.50
2023-02-15T23:03:19.234Z,22.40
2023-02-15T23:05:46.045Z,26.07
2023-02-15T23:08:12.840Z,21.10
2023-02-15T23:10:39.729Z,23.70
2023-02-15T23:13:25.080Z,22.03
2023-02-15T23:15:57.442Z,22.33
2023-02-15T23:18:29.265Z,20.80
2023-02-15T23:21:04.646Z,23.20
2023-02-15T23:23:39.593Z,21.47
2023-02-15T23:26:13.741Z,22.80
2023-02-15T23:28:40.551Z,23.00
2023-02-15T23:31:16.411Z,21.00
2023-02-15T23:33:43.256Z,21.40
2023-02-15T23:36:23.958Z,22.30
2023-02-15T23:38:50.654Z,21.30
2023-02-15T23:41:20.514Z,22.87
2023-02-15T23:43:53.919Z,22.00
2023-02-15T23:46:26.454Z,21.87
2023-02-15T23:48:53.391Z,25.17
2023-02-15T23:51:21.244Z,22.90
2023-02-15T23:53:47.869Z,23.07
2023-02-15T23:56:14.563Z,22.10
2023-02-15T23:58:42.698Z,23.77
